sensor_id;sensor_type;location;lat;lon;timestamp;P1;durP1;ratioP1;P2;durP2;ratioP2
27728;SDS011;15126;42.186;24.340;2023-09-19T00:00:04;11.17;;;8.83;;
27728;SDS011;15126;42.186;24.340;2023-09-19T00:02:35;9.23;;;8.33;;
27728;SDS011;15126;42.186;24.340;2023-09-19T00:05:04;9.17;;;8.27;;
27728;SDS011;15126;42.186;24.340;2023-09-19T00:07:32;10.83;;;8.03;;
27728;SDS011;15126;42.186;24.340;2023-09-19T00:10:02;8.77;;;7.67;;
27728;SDS011;15126;42.186;24.340;2023-09-19T00:12:31;10.30;;;9.20;;
27728;SDS011;15126;42.186;24.340;2023-09-19T00:14:58;9.00;;;7.37;;
27728;SDS011;15126;42.186;24.340;2023-09-19T00:17:27;9.23;;;8.40;;
27728;SDS011;15126;42.186;24.340;2023-09-19T00:19:55;12.70;;;8.57;;
27728;SDS011;15126;42.186;24.340;2023-09-19T00:22:22;9.87;;;8.87;;
27728;SDS011;15126;42.186;24.340;2023-09-19T00:24:51;8.47;;;7.67;;
27728;SDS011;15126;42.186;24.340;2023-09-19T00:27:20;9.47;;;8.00;;
27728;SDS011;15126;42.186;24.340;2023-09-19T00:29:47;9.40;;;8.40;;
27728;SDS011;15126;42.186;24.340;2023-09-19T00:32:14;10.77;;;8.57;;
27728;SDS011;15126;42.186;24.340;2023-09-19T00:34:42;12.03;;;8.60;;
27728;SDS011;15126;42.186;24.340;2023-09-19T00:37:09;9.77;;;8.77;;
27728;SDS011;15126;42.186;24.340;2023-09-19T00:39:36;10.57;;;9.57;;
27728;SDS011;15126;42.186;24.340;2023-09-19T00:42:03;11.37;;;8.90;;
27728;SDS011;15126;42.186;24.340;2023-09-19T00:44:30;11.37;;;8.60;;
27728;SDS011;15126;42.186;24.340;2023-09-19T00:46:59;16.40;;;8.57;;
27728;SDS011;15126;42.186;24.340;2023-09-19T00:49:27;10.13;;;9.03;;
27728;SDS011;15126;42.186;24.340;2023-09-19T00:51:57;8.07;;;7.37;;
27728;SDS011;15126;42.186;24.340;2023-09-19T00:54:25;9.90;;;9.00;;
27728;SDS011;15126;42.186;24.340;2023-09-19T00:56:53;8.63;;;7.93;;
27728;SDS011;15126;42.186;24.340;2023-09-19T00:59:20;16.07;;;9.37;;
27728;SDS011;15126;42.186;24.340;2023-09-19T01:01:47;11.40;;;7.83;;
27728;SDS011;15126;42.186;24.340;2023-09-19T01:04:18;10.33;;;9.33;;
27728;SDS011;15126;42.186;24.340;2023-09-19T01:06:45;10.03;;;7.77;;
27728;SDS011;15126;42.186;24.340;2023-09-19T01:09:19;10.73;;;9.00;;
27728;SDS011;15126;42.186;24.340;2023-09-19T01:11:47;9.30;;;7.97;;
27728;SDS011;15126;42.186;24.340;2023-09-19T01:14:20;8.43;;;7.70;;
27728;SDS011;15126;42.186;24.340;2023-09-19T01:16:57;8.93;;;8.10;;
27728;SDS011;15126;42.186;24.340;2023-09-19T01:22:36;9.03;;;8.13;;
27728;SDS011;15126;42.186;24.340;2023-09-19T01:25:31;9.03;;;8.23;;
27728;SDS011;15126;42.186;24.340;2023-09-19T01:28:20;11.10;;;8.10;;
27728;SDS011;15126;42.186;24.340;2023-09-19T01:31:09;8.47;;;7.67;;
27728;SDS011;15126;42.186;24.340;2023-09-19T01:33:53;9.83;;;8.80;;
27728;SDS011;15126;42.186;24.340;2023-09-19T01:36:25;13.07;;;7.93;;
27728;SDS011;15126;42.186;24.340;2023-09-19T01:39:00;8.97;;;8.13;;
27728;SDS011;15126;42.186;24.340;2023-09-19T01:41:41;9.33;;;8.17;;
27728;SDS011;15126;42.186;24.340;2023-09-19T01:44:21;8.40;;;7.60;;
27728;SDS011;15126;42.186;24.340;2023-09-19T01:46:53;9.13;;;8.33;;
27728;SDS011;15126;42.186;24.340;2023-09-19T01:49:27;8.97;;;8.03;;
27728;SDS011;15126;42.186;24.340;2023-09-19T01:52:02;8.93;;;7.73;;
27728;SDS011;15126;42.186;24.340;2023-09-19T01:54:36;9.40;;;8.37;;
27728;SDS011;15126;42.186;24.340;2023-09-19T01:57:09;8.33;;;7.53;;
27728;SDS011;15126;42.186;24.340;2023-09-19T01:59:43;8.40;;;7.47;;
27728;SDS011;15126;42.186;24.340;2023-09-19T02:02:17;10.70;;;8.67;;
27728;SDS011;15126;42.186;24.340;2023-09-19T02:04:47;9.97;;;7.83;;
27728;SDS011;15126;42.186;24.340;2023-09-19T02:07:15;9.23;;;7.70;;
27728;SDS011;15126;42.186;24.340;2023-09-19T02:09:43;9.77;;;8.00;;
27728;SDS011;15126;42.186;24.340;2023-09-19T02:12:09;8.83;;;8.03;;
27728;SDS011;15126;42.186;24.340;2023-09-19T02:14:36;9.30;;;8.03;;
27728;SDS011;15126;42.186;24.340;2023-09-19T02:17:03;9.30;;;7.57;;
27728;SDS011;15126;42.186;24.340;2023-09-19T02:19:37;9.47;;;8.23;;
27728;SDS011;15126;42.186;24.340;2023-09-19T02:22:06;8.97;;;8.13;;
27728;SDS011;15126;42.186;24.340;2023-09-19T02:24:35;9.90;;;8.40;;
27728;SDS011;15126;42.186;24.340;2023-09-19T02:27:03;9.63;;;8.00;;
27728;SDS011;15126;42.186;24.340;2023-09-19T02:29:31;13.50;;;9.10;;
27728;SDS011;15126;42.186;24.340;2023-09-19T02:31:59;12.43;;;9.07;;
27728;SDS011;15126;42.186;24.340;2023-09-19T02:34:27;11.37;;;10.27;;
27728;SDS011;15126;42.186;24.340;2023-09-19T02:36:56;10.83;;;9.77;;
27728;SDS011;15126;42.186;24.340;2023-09-19T02:39:23;10.67;;;9.67;;
27728;SDS011;15126;42.186;24.340;2023-09-19T02:41:50;11.63;;;10.47;;
27728;SDS011;15126;42.186;24.340;2023-09-19T02:44:17;12.30;;;10.90;;
27728;SDS011;15126;42.186;24.340;2023-09-19T02:46:45;8.70;;;7.90;;
27728;SDS011;15126;42.186;24.340;2023-09-19T02:49:12;9.67;;;8.33;;
27728;SDS011;15126;42.186;24.340;2023-09-19T02:51:39;13.13;;;8.93;;
27728;SDS011;15126;42.186;24.340;2023-09-19T02:54:08;10.63;;;8.27;;
27728;SDS011;15126;42.186;24.340;2023-09-19T02:56:35;9.57;;;8.70;;
27728;SDS011;15126;42.186;24.340;2023-09-19T02:59:05;10.73;;;9.47;;
27728;SDS011;15126;42.186;24.340;2023-09-19T03:01:32;10.80;;;9.60;;
27728;SDS011;15126;42.186;24.340;2023-09-19T03:03:59;10.93;;;9.83;;
27728;SDS011;15126;42.186;24.340;2023-09-19T03:06:26;9.53;;;8.67;;
27728;SDS011;15126;42.186;24.340;2023-09-19T03:08:56;9.10;;;8.40;;
27728;SDS011;15126;42.186;24.340;2023-09-19T03:11:26;12.10;;;8.90;;
27728;SDS011;15126;42.186;24.340;2023-09-19T03:13:53;11.00;;;8.47;;
27728;SDS011;15126;42.186;24.340;2023-09-19T03:16:21;10.43;;;9.33;;
27728;SDS011;15126;42.186;24.340;2023-09-19T03:18:48;9.43;;;8.40;;
27728;SDS011;15126;42.186;24.340;2023-09-19T03:21:15;11.53;;;9.30;;
27728;SDS011;15126;42.186;24.340;2023-09-19T03:23:42;12.33;;;8.63;;
27728;SDS011;15126;42.186;24.340;2023-09-19T03:26:10;11.73;;;8.33;;
27728;SDS011;15126;42.186;24.340;2023-09-19T03:28:41;8.57;;;7.70;;
27728;SDS011;15126;42.186;24.340;2023-09-19T03:31:08;13.97;;;8.90;;
27728;SDS011;15126;42.186;24.340;2023-09-19T03:33:35;15.03;;;9.50;;
27728;SDS011;15126;42.186;24.340;2023-09-19T03:36:02;12.93;;;9.77;;
27728;SDS011;15126;42.186;24.340;2023-09-19T03:38:31;10.90;;;9.87;;
27728;SDS011;15126;42.186;24.340;2023-09-19T03:41:03;14.67;;;9.47;;
27728;SDS011;15126;42.186;24.340;2023-09-19T03:43:31;10.00;;;8.97;;
27728;SDS011;15126;42.186;24.340;2023-09-19T03:46:02;11.27;;;8.57;;
27728;SDS011;15126;42.186;24.340;2023-09-19T03:48:30;16.73;;;13.10;;
27728;SDS011;15126;42.186;24.340;2023-09-19T03:50:59;19.07;;;16.47;;
27728;SDS011;15126;42.186;24.340;2023-09-19T03:53:28;12.17;;;9.90;;
27728;SDS011;15126;42.186;24.340;2023-09-19T03:55:54;11.10;;;10.00;;
27728;SDS011;15126;42.186;24.340;2023-09-19T03:58:23;13.00;;;10.60;;
27728;SDS011;15126;42.186;24.340;2023-09-19T04:00:50;10.77;;;9.77;;
27728;SDS011;15126;42.186;24.340;2023-09-19T04:03:18;20.63;;;10.57;;
27728;SDS011;15126;42.186;24.340;2023-09-19T04:05:46;10.57;;;9.57;;
27728;SDS011;15126;42.186;24.340;2023-09-19T04:08:31;14.60;;;9.17;;
27728;SDS011;15126;42.186;24.340;2023-09-19T04:11:14;10.93;;;9.33;;
27728;SDS011;15126;42.186;24.340;2023-09-19T04:13:41;12.77;;;9.03;;
27728;SDS011;15126;42.186;24.340;2023-09-19T04:16:08;13.03;;;9.83;;
27728;SDS011;15126;42.186;24.340;2023-09-19T04:18:36;10.63;;;9.60;;
27728;SDS011;15126;42.186;24.340;2023-09-19T04:21:04;13.07;;;9.97;;
27728;SDS011;15126;42.186;24.340;2023-09-19T04:23:31;14.20;;;9.97;;
27728;SDS011;15126;42.186;24.340;2023-09-19T04:26:00;11.90;;;8.97;;
27728;SDS011;15126;42.186;24.340;2023-09-19T04:28:29;11.00;;;9.47;;
27728;SDS011;15126;42.186;24.340;2023-09-19T04:30:56;10.90;;;9.07;;
27728;SDS011;15126;42.186;24.340;2023-09-19T04:33:25;11.87;;;9.63;;
27728;SDS011;15126;42.186;24.340;2023-09-19T04:35:54;11.63;;;10.47;;
27728;SDS011;15126;42.186;24.340;2023-09-19T04:38:21;11.70;;;9.47;;
27728;SDS011;15126;42.186;24.340;2023-09-19T04:40:49;10.87;;;8.43;;
27728;SDS011;15126;42.186;24.340;2023-09-19T04:43:18;13.73;;;10.73;;
27728;SDS011;15126;42.186;24.340;2023-09-19T04:45:47;9.73;;;8.83;;
27728;SDS011;15126;42.186;24.340;2023-09-19T04:48:14;13.77;;;8.90;;
27728;SDS011;15126;42.186;24.340;2023-09-19T04:50:41;13.60;;;9.43;;
27728;SDS011;15126;42.186;24.340;2023-09-19T04:53:10;15.53;;;11.70;;
27728;SDS011;15126;42.186;24.340;2023-09-19T04:55:39;9.70;;;8.90;;
27728;SDS011;15126;42.186;24.340;2023-09-19T04:58:06;12.40;;;10.83;;
27728;SDS011;15126;42.186;24.340;2023-09-19T05:00:32;9.70;;;8.67;;
27728;SDS011;15126;42.186;24.340;2023-09-19T05:03:00;11.73;;;9.80;;
27728;SDS011;15126;42.186;24.340;2023-09-19T05:05:29;13.83;;;9.93;;
27728;SDS011;15126;42.186;24.340;2023-09-19T05:07:56;11.13;;;10.13;;
27728;SDS011;15126;42.186;24.340;2023-09-19T05:10:25;11.17;;;9.97;;
27728;SDS011;15126;42.186;24.340;2023-09-19T05:12:53;10.53;;;8.47;;
27728;SDS011;15126;42.186;24.340;2023-09-19T05:15:22;11.33;;;10.07;;
27728;SDS011;15126;42.186;24.340;2023-09-19T05:17:49;17.53;;;8.70;;
27728;SDS011;15126;42.186;24.340;2023-09-19T05:20:16;15.60;;;10.10;;
27728;SDS011;15126;42.186;24.340;2023-09-19T05:22:49;14.00;;;9.77;;
27728;SDS011;15126;42.186;24.340;2023-09-19T05:25:16;12.73;;;8.80;;
27728;SDS011;15126;42.186;24.340;2023-09-19T05:27:45;14.47;;;9.57;;
27728;SDS011;15126;42.186;24.340;2023-09-19T05:30:12;19.33;;;9.37;;
27728;SDS011;15126;42.186;24.340;2023-09-19T05:32:41;12.70;;;8.53;;
27728;SDS011;15126;42.186;24.340;2023-09-19T05:35:09;10.57;;;8.07;;
27728;SDS011;15126;42.186;24.340;2023-09-19T05:37:38;9.67;;;8.67;;
27728;SDS011;15126;42.186;24.340;2023-09-19T05:40:05;10.60;;;8.27;;
27728;SDS011;15126;42.186;24.340;2023-09-19T05:42:35;11.07;;;8.93;;
27728;SDS011;15126;42.186;24.340;2023-09-19T05:45:05;11.13;;;8.43;;
27728;SDS011;15126;42.186;24.340;2023-09-19T05:47:32;12.67;;;8.23;;
27728;SDS011;15126;42.186;24.340;2023-09-19T05:49:59;139.90;;;17.70;;
27728;SDS011;15126;42.186;24.340;2023-09-19T05:52:26;26.67;;;9.47;;
27728;SDS011;15126;42.186;24.340;2023-09-19T05:54:53;15.83;;;8.13;;
27728;SDS011;15126;42.186;24.340;2023-09-19T05:57:21;24.20;;;9.13;;
27728;SDS011;15126;42.186;24.340;2023-09-19T05:59:51;26.77;;;9.00;;
27728;SDS011;15126;42.186;24.340;2023-09-19T06:02:19;13.23;;;8.37;;
27728;SDS011;15126;42.186;24.340;2023-09-19T06:04:46;14.77;;;7.80;;
27728;SDS011;15126;42.186;24.340;2023-09-19T06:07:14;18.80;;;8.20;;
27728;SDS011;15126;42.186;24.340;2023-09-19T06:09:41;17.90;;;8.20;;
27728;SDS011;15126;42.186;24.340;2023-09-19T06:12:08;8.00;;;7.27;;
27728;SDS011;15126;42.186;24.340;2023-09-19T06:14:39;10.47;;;7.47;;
27728;SDS011;15126;42.186;24.340;2023-09-19T06:17:06;8.00;;;7.20;;
27728;SDS011;15126;42.186;24.340;2023-09-19T06:19:34;23.33;;;9.77;;
27728;SDS011;15126;42.186;24.340;2023-09-19T06:22:01;10.83;;;7.43;;
27728;SDS011;15126;42.186;24.340;2023-09-19T06:24:28;11.47;;;7.33;;
27728;SDS011;15126;42.186;24.340;2023-09-19T06:26:55;11.23;;;8.23;;
27728;SDS011;15126;42.186;24.340;2023-09-19T06:29:22;15.53;;;7.97;;
27728;SDS011;15126;42.186;24.340;2023-09-19T06:31:50;9.90;;;7.33;;
27728;SDS011;15126;42.186;24.340;2023-09-19T06:34:16;8.53;;;7.63;;
27728;SDS011;15126;42.186;24.340;2023-09-19T06:36:45;9.27;;;8.03;;
27728;SDS011;15126;42.186;24.340;2023-09-19T06:39:11;31.83;;;8.87;;
27728;SDS011;15126;42.186;24.340;2023-09-19T06:41:39;15.10;;;7.17;;
27728;SDS011;15126;42.186;24.340;2023-09-19T06:44:06;7.43;;;6.80;;
27728;SDS011;15126;42.186;24.340;2023-09-19T06:46:34;10.13;;;6.63;;
27728;SDS011;15126;42.186;24.340;2023-09-19T06:49:05;7.80;;;7.07;;
27728;SDS011;15126;42.186;24.340;2023-09-19T06:51:32;11.63;;;7.30;;
27728;SDS011;15126;42.186;24.340;2023-09-19T06:54:01;10.30;;;8.40;;
27728;SDS011;15126;42.186;24.340;2023-09-19T06:56:30;14.63;;;8.17;;
27728;SDS011;15126;42.186;24.340;2023-09-19T06:58:58;8.60;;;7.13;;
27728;SDS011;15126;42.186;24.340;2023-09-19T07:01:27;8.13;;;7.33;;
27728;SDS011;15126;42.186;24.340;2023-09-19T07:03:54;7.73;;;6.73;;
27728;SDS011;15126;42.186;24.340;2023-09-19T07:06:20;17.00;;;8.27;;
27728;SDS011;15126;42.186;24.340;2023-09-19T07:08:50;10.70;;;6.73;;
27728;SDS011;15126;42.186;24.340;2023-09-19T07:11:19;9.33;;;7.57;;
27728;SDS011;15126;42.186;24.340;2023-09-19T07:13:46;8.20;;;6.83;;
27728;SDS011;15126;42.186;24.340;2023-09-19T07:16:13;13.30;;;6.70;;
27728;SDS011;15126;42.186;24.340;2023-09-19T07:18:52;12.33;;;7.57;;
27728;SDS011;15126;42.186;24.340;2023-09-19T07:21:20;8.00;;;7.17;;
27728;SDS011;15126;42.186;24.340;2023-09-19T07:23:47;8.33;;;7.57;;
27728;SDS011;15126;42.186;24.340;2023-09-19T07:26:14;8.00;;;7.27;;
27728;SDS011;15126;42.186;24.340;2023-09-19T07:28:43;8.67;;;6.80;;
27728;SDS011;15126;42.186;24.340;2023-09-19T07:31:11;8.53;;;7.50;;
27728;SDS011;15126;42.186;24.340;2023-09-19T07:33:39;7.63;;;6.93;;
27728;SDS011;15126;42.186;24.340;2023-09-19T07:36:09;8.50;;;7.47;;
27728;SDS011;15126;42.186;24.340;2023-09-19T07:38:38;8.77;;;7.90;;
27728;SDS011;15126;42.186;24.340;2023-09-19T07:41:05;7.47;;;6.87;;
27728;SDS011;15126;42.186;24.340;2023-09-19T07:43:34;8.13;;;7.30;;
27728;SDS011;15126;42.186;24.340;2023-09-19T07:46:05;10.33;;;7.53;;
27728;SDS011;15126;42.186;24.340;2023-09-19T07:48:34;8.37;;;7.60;;
27728;SDS011;15126;42.186;24.340;2023-09-19T07:51:03;12.83;;;7.77;;
27728;SDS011;15126;42.186;24.340;2023-09-19T07:53:29;11.50;;;7.23;;
27728;SDS011;15126;42.186;24.340;2023-09-19T07:56:03;12.37;;;8.00;;
27728;SDS011;15126;42.186;24.340;2023-09-19T07:58:30;13.53;;;8.60;;
27728;SDS011;15126;42.186;24.340;2023-09-19T08:01:02;8.30;;;7.50;;
27728;SDS011;15126;42.186;24.340;2023-09-19T08:03:30;8.10;;;7.30;;
27728;SDS011;15126;42.186;24.340;2023-09-19T08:05:57;16.97;;;7.77;;
27728;SDS011;15126;42.186;24.340;2023-09-19T08:08:24;9.27;;;7.50;;
27728;SDS011;15126;42.186;24.340;2023-09-19T08:10:52;7.73;;;7.03;;
27728;SDS011;15126;42.186;24.340;2023-09-19T08:13:25;12.07;;;7.30;;
27728;SDS011;15126;42.186;24.340;2023-09-19T08:15:52;8.43;;;7.60;;
27728;SDS011;15126;42.186;24.340;2023-09-19T08:18:19;8.17;;;7.33;;
27728;SDS011;15126;42.186;24.340;2023-09-19T08:20:52;9.03;;;8.23;;
27728;SDS011;15126;42.186;24.340;2023-09-19T08:23:19;11.60;;;7.47;;
27728;SDS011;15126;42.186;24.340;2023-09-19T08:25:46;9.07;;;7.47;;
27728;SDS011;15126;42.186;24.340;2023-09-19T08:28:13;11.40;;;7.23;;
27728;SDS011;15126;42.186;24.340;2023-09-19T08:30:44;8.10;;;7.30;;
27728;SDS011;15126;42.186;24.340;2023-09-19T08:33:11;9.90;;;7.67;;
27728;SDS011;15126;42.186;24.340;2023-09-19T08:35:40;11.47;;;7.80;;
27728;SDS011;15126;42.186;24.340;2023-09-19T08:38:10;9.63;;;7.63;;
27728;SDS011;15126;42.186;24.340;2023-09-19T08:40:39;9.87;;;6.63;;
27728;SDS011;15126;42.186;24.340;2023-09-19T08:43:09;7.73;;;6.77;;
27728;SDS011;15126;42.186;24.340;2023-09-19T08:45:35;7.80;;;7.20;;
27728;SDS011;15126;42.186;24.340;2023-09-19T08:48:12;8.23;;;6.73;;
27728;SDS011;15126;42.186;24.340;2023-09-19T08:50:48;9.50;;;7.27;;
27728;SDS011;15126;42.186;24.340;2023-09-19T08:53:26;14.30;;;8.20;;
27728;SDS011;15126;42.186;24.340;2023-09-19T08:56:00;11.20;;;6.53;;
27728;SDS011;15126;42.186;24.340;2023-09-19T08:58:34;12.20;;;6.87;;
27728;SDS011;15126;42.186;24.340;2023-09-19T09:01:06;6.87;;;6.23;;
27728;SDS011;15126;42.186;24.340;2023-09-19T09:03:35;7.93;;;7.10;;
27728;SDS011;15126;42.186;24.340;2023-09-19T09:06:05;8.00;;;6.70;;
27728;SDS011;15126;42.186;24.340;2023-09-19T09:08:37;9.60;;;7.77;;
27728;SDS011;15126;42.186;24.340;2023-09-19T09:11:06;11.77;;;6.90;;
27728;SDS011;15126;42.186;24.340;2023-09-19T09:13:34;10.73;;;7.13;;
27728;SDS011;15126;42.186;24.340;2023-09-19T09:16:02;8.67;;;7.03;;
27728;SDS011;15126;42.186;24.340;2023-09-19T09:18:29;8.67;;;7.70;;
27728;SDS011;15126;42.186;24.340;2023-09-19T09:20:56;7.97;;;7.33;;
27728;SDS011;15126;42.186;24.340;2023-09-19T09:23:23;7.97;;;6.83;;
27728;SDS011;15126;42.186;24.340;2023-09-19T09:25:52;10.93;;;6.90;;
27728;SDS011;15126;42.186;24.340;2023-09-19T09:28:22;7.73;;;7.03;;
27728;SDS011;15126;42.186;24.340;2023-09-19T09:30:54;10.70;;;6.53;;
27728;SDS011;15126;42.186;24.340;2023-09-19T09:33:23;6.87;;;5.87;;
27728;SDS011;15126;42.186;24.340;2023-09-19T09:35:51;5.93;;;5.33;;
27728;SDS011;15126;42.186;24.340;2023-09-19T09:38:24;8.10;;;7.40;;
27728;SDS011;15126;42.186;24.340;2023-09-19T09:40:59;8.03;;;6.33;;
27728;SDS011;15126;42.186;24.340;2023-09-19T09:43:32;7.00;;;6.33;;
27728;SDS011;15126;42.186;24.340;2023-09-19T09:46:09;8.07;;;6.13;;
27728;SDS011;15126;42.186;24.340;2023-09-19T09:49:00;6.30;;;5.70;;
27728;SDS011;15126;42.186;24.340;2023-09-19T09:52:04;8.47;;;6.07;;
27728;SDS011;15126;42.186;24.340;2023-09-19T09:54:35;8.67;;;5.60;;
27728;SDS011;15126;42.186;24.340;2023-09-19T09:57:04;9.10;;;6.13;;
27728;SDS011;15126;42.186;24.340;2023-09-19T09:59:48;6.60;;;5.93;;
27728;SDS011;15126;42.186;24.340;2023-09-19T10:02:16;6.77;;;6.27;;
27728;SDS011;15126;42.186;24.340;2023-09-19T10:04:50;7.13;;;6.20;;
27728;SDS011;15126;42.186;24.340;2023-09-19T10:07:24;6.33;;;5.73;;
27728;SDS011;15126;42.186;24.340;2023-09-19T10:09:59;8.10;;;6.00;;
27728;SDS011;15126;42.186;24.340;2023-09-19T10:12:41;6.63;;;6.03;;
27728;SDS011;15126;42.186;24.340;2023-09-19T10:15:11;5.97;;;5.47;;
27728;SDS011;15126;42.186;24.340;2023-09-19T10:17:42;8.03;;;7.23;;
27728;SDS011;15126;42.186;24.340;2023-09-19T10:20:13;6.27;;;5.70;;
27728;SDS011;15126;42.186;24.340;2023-09-19T10:22:51;8.93;;;6.13;;
27728;SDS011;15126;42.186;24.340;2023-09-19T10:25:25;7.67;;;6.97;;
27728;SDS011;15126;42.186;24.340;2023-09-19T10:27:55;8.00;;;6.50;;
27728;SDS011;15126;42.186;24.340;2023-09-19T10:30:31;7.57;;;6.77;;
27728;SDS011;15126;42.186;24.340;2023-09-19T10:33:06;6.73;;;6.10;;
27728;SDS011;15126;42.186;24.340;2023-09-19T10:35:33;8.57;;;7.30;;
27728;SDS011;15126;42.186;24.340;2023-09-19T10:38:05;7.17;;;6.47;;
27728;SDS011;15126;42.186;24.340;2023-09-19T10:40:34;6.73;;;6.13;;
27728;SDS011;15126;42.186;24.340;2023-09-19T10:43:07;6.80;;;6.20;;
27728;SDS011;15126;42.186;24.340;2023-09-19T10:45:38;7.13;;;6.53;;
27728;SDS011;15126;42.186;24.340;2023-09-19T10:48:12;6.87;;;6.17;;
27728;SDS011;15126;42.186;24.340;2023-09-19T10:50:43;8.13;;;6.07;;
27728;SDS011;15126;42.186;24.340;2023-09-19T10:53:14;7.03;;;6.43;;
27728;SDS011;15126;42.186;24.340;2023-09-19T10:55:48;7.00;;;6.20;;
27728;SDS011;15126;42.186;24.340;2023-09-19T10:58:28;6.90;;;6.40;;
27728;SDS011;15126;42.186;24.340;2023-09-19T11:00:56;7.07;;;6.23;;
27728;SDS011;15126;42.186;24.340;2023-09-19T11:03:39;7.23;;;6.53;;
27728;SDS011;15126;42.186;24.340;2023-09-19T11:06:19;7.40;;;6.70;;
27728;SDS011;15126;42.186;24.340;2023-09-19T11:09:05;7.43;;;6.03;;
27728;SDS011;15126;42.186;24.340;2023-09-19T11:11:50;9.47;;;6.50;;
27728;SDS011;15126;42.186;24.340;2023-09-19T11:14:30;7.63;;;6.83;;
27728;SDS011;15126;42.186;24.340;2023-09-19T11:25:58;9.30;;;6.83;;
27728;SDS011;15126;42.186;24.340;2023-09-19T11:28:32;7.50;;;6.83;;
27728;SDS011;15126;42.186;24.340;2023-09-19T11:31:40;7.07;;;6.00;;
27728;SDS011;15126;42.186;24.340;2023-09-19T11:40:41;6.40;;;5.73;;
27728;SDS011;15126;42.186;24.340;2023-09-19T11:43:29;9.30;;;5.80;;
27728;SDS011;15126;42.186;24.340;2023-09-19T11:46:06;7.03;;;6.43;;
27728;SDS011;15126;42.186;24.340;2023-09-19T11:48:38;9.77;;;6.33;;
27728;SDS011;15126;42.186;24.340;2023-09-19T11:51:13;7.03;;;6.53;;
27728;SDS011;15126;42.186;24.340;2023-09-19T11:53:49;7.87;;;6.40;;
27728;SDS011;15126;42.186;24.340;2023-09-19T11:56:17;7.97;;;6.47;;
27728;SDS011;15126;42.186;24.340;2023-09-19T11:58:46;19.97;;;7.60;;
27728;SDS011;15126;42.186;24.340;2023-09-19T12:01:25;8.00;;;6.60;;
27728;SDS011;15126;42.186;24.340;2023-09-19T12:03:55;7.90;;;6.17;;
27728;SDS011;15126;42.186;24.340;2023-09-19T12:06:24;8.87;;;5.97;;
27728;SDS011;15126;42.186;24.340;2023-09-19T12:08:52;7.27;;;6.57;;
27728;SDS011;15126;42.186;24.340;2023-09-19T12:11:20;10.43;;;7.27;;
27728;SDS011;15126;42.186;24.340;2023-09-19T12:13:49;8.13;;;7.27;;
27728;SDS011;15126;42.186;24.340;2023-09-19T12:16:19;9.97;;;7.00;;
27728;SDS011;15126;42.186;24.340;2023-09-19T12:18:51;9.50;;;6.70;;
27728;SDS011;15126;42.186;24.340;2023-09-19T12:21:25;6.83;;;6.17;;
27728;SDS011;15126;42.186;24.340;2023-09-19T12:26:40;8.77;;;7.00;;
27728;SDS011;15126;42.186;24.340;2023-09-19T12:29:12;6.97;;;6.47;;
27728;SDS011;15126;42.186;24.340;2023-09-19T12:31:47;7.23;;;6.60;;
27728;SDS011;15126;42.186;24.340;2023-09-19T12:34:18;7.03;;;6.43;;
27728;SDS011;15126;42.186;24.340;2023-09-19T12:36:46;8.03;;;6.70;;
27728;SDS011;15126;42.186;24.340;2023-09-19T12:39:22;7.33;;;6.77;;
27728;SDS011;15126;42.186;24.340;2023-09-19T12:41:51;9.20;;;6.57;;
27728;SDS011;15126;42.186;24.340;2023-09-19T12:44:21;7.20;;;5.43;;
27728;SDS011;15126;42.186;24.340;2023-09-19T12:46:50;7.10;;;6.40;;
27728;SDS011;15126;42.186;24.340;2023-09-19T12:49:23;36.40;;;7.10;;
27728;SDS011;15126;42.186;24.340;2023-09-19T12:51:54;9.13;;;6.63;;
27728;SDS011;15126;42.186;24.340;2023-09-19T12:54:23;6.57;;;5.97;;
27728;SDS011;15126;42.186;24.340;2023-09-19T12:56:51;7.63;;;5.80;;
27728;SDS011;15126;42.186;24.340;2023-09-19T12:59:19;7.27;;;6.50;;
27728;SDS011;15126;42.186;24.340;2023-09-19T13:02:05;7.07;;;6.33;;
27728;SDS011;15126;42.186;24.340;2023-09-19T13:04:40;7.17;;;6.43;;
27728;SDS011;15126;42.186;24.340;2023-09-19T13:10:14;12.23;;;6.83;;
27728;SDS011;15126;42.186;24.340;2023-09-19T13:12:42;6.47;;;5.80;;
27728;SDS011;15126;42.186;24.340;2023-09-19T13:15:13;10.17;;;6.63;;
27728;SDS011;15126;42.186;24.340;2023-09-19T13:17:45;7.00;;;6.37;;
27728;SDS011;15126;42.186;24.340;2023-09-19T13:20:24;10.60;;;5.90;;
27728;SDS011;15126;42.186;24.340;2023-09-19T13:22:54;8.30;;;6.47;;
27728;SDS011;15126;42.186;24.340;2023-09-19T13:25:25;7.87;;;6.20;;
27728;SDS011;15126;42.186;24.340;2023-09-19T13:27:54;10.53;;;6.67;;
27728;SDS011;15126;42.186;24.340;2023-09-19T13:30:23;11.30;;;5.60;;
27728;SDS011;15126;42.186;24.340;2023-09-19T13:32:51;6.80;;;6.17;;
27728;SDS011;15126;42.186;24.340;2023-09-19T13:35:19;7.90;;;6.23;;
27728;SDS011;15126;42.186;24.340;2023-09-19T13:37:47;6.97;;;6.43;;
27728;SDS011;15126;42.186;24.340;2023-09-19T13:40:17;6.37;;;5.93;;
27728;SDS011;15126;42.186;24.340;2023-09-19T13:42:46;6.50;;;5.90;;
27728;SDS011;15126;42.186;24.340;2023-09-19T13:45:13;12.93;;;5.53;;
27728;SDS011;15126;42.186;24.340;2023-09-19T13:47:42;6.73;;;6.13;;
27728;SDS011;15126;42.186;24.340;2023-09-19T13:50:09;6.40;;;5.90;;
27728;SDS011;15126;42.186;24.340;2023-09-19T13:52:36;7.47;;;6.63;;
27728;SDS011;15126;42.186;24.340;2023-09-19T13:55:05;13.63;;;6.97;;
27728;SDS011;15126;42.186;24.340;2023-09-19T13:57:33;8.10;;;7.30;;
27728;SDS011;15126;42.186;24.340;2023-09-19T14:00:00;9.00;;;6.20;;
27728;SDS011;15126;42.186;24.340;2023-09-19T14:02:35;6.33;;;5.77;;
27728;SDS011;15126;42.186;24.340;2023-09-19T14:05:02;8.67;;;6.40;;
27728;SDS011;15126;42.186;24.340;2023-09-19T14:07:37;8.60;;;7.33;;
27728;SDS011;15126;42.186;24.340;2023-09-19T14:10:11;6.80;;;6.03;;
27728;SDS011;15126;42.186;24.340;2023-09-19T14:12:38;8.63;;;6.40;;
27728;SDS011;15126;42.186;24.340;2023-09-19T14:15:06;8.77;;;6.53;;
27728;SDS011;15126;42.186;24.340;2023-09-19T14:17:43;6.17;;;5.50;;
27728;SDS011;15126;42.186;24.340;2023-09-19T14:20:16;8.83;;;6.40;;
27728;SDS011;15126;42.186;24.340;2023-09-19T14:22:47;8.73;;;5.80;;
27728;SDS011;15126;42.186;24.340;2023-09-19T14:25:18;7.10;;;6.30;;
27728;SDS011;15126;42.186;24.340;2023-09-19T14:27:46;6.90;;;6.23;;
27728;SDS011;15126;42.186;24.340;2023-09-19T14:30:14;8.30;;;6.87;;
27728;SDS011;15126;42.186;24.340;2023-09-19T14:32:41;9.77;;;6.07;;
27728;SDS011;15126;42.186;24.340;2023-09-19T14:35:08;7.87;;;6.53;;
27728;SDS011;15126;42.186;24.340;2023-09-19T14:37:35;7.03;;;6.33;;
27728;SDS011;15126;42.186;24.340;2023-09-19T14:40:04;12.03;;;7.10;;
27728;SDS011;15126;42.186;24.340;2023-09-19T14:42:38;8.67;;;6.13;;
27728;SDS011;15126;42.186;24.340;2023-09-19T14:45:08;6.93;;;6.23;;
27728;SDS011;15126;42.186;24.340;2023-09-19T14:47:36;6.17;;;4.90;;
27728;SDS011;15126;42.186;24.340;2023-09-19T14:50:03;6.70;;;6.10;;
27728;SDS011;15126;42.186;24.340;2023-09-19T14:52:34;10.57;;;5.50;;
27728;SDS011;15126;42.186;24.340;2023-09-19T14:55:01;6.77;;;6.07;;
27728;SDS011;15126;42.186;24.340;2023-09-19T14:57:36;6.90;;;6.30;;
27728;SDS011;15126;42.186;24.340;2023-09-19T15:00:06;6.73;;;5.97;;
27728;SDS011;15126;42.186;24.340;2023-09-19T15:02:37;8.23;;;7.20;;
27728;SDS011;15126;42.186;24.340;2023-09-19T15:05:05;13.27;;;7.13;;
27728;SDS011;15126;42.186;24.340;2023-09-19T15:07:36;10.70;;;6.77;;
27728;SDS011;15126;42.186;24.340;2023-09-19T15:10:05;11.53;;;7.80;;